TimeCST,TemperatureF,Dew PointF,Humidity,Sea Level PressureIn,VisibilityMPH,Wind Direction,Wind SpeedMPH,Gust SpeedMPH,PrecipitationIn,Events,Conditions,WindDirDegrees,DateUTC
12:15 AM,10.4,5.9,82,30.23,0.8,South,6.9,-,N/A,Snow,Snow,170,2013-12-25 06:15:00
12:35 AM,10.4,5.9,82,30.22,1.0,South,8.1,-,N/A,Snow,Snow,170,2013-12-25 06:35:00
12:55 AM,10.4,5.9,82,30.22,2.5,South,6.9,-,N/A,Snow,Light Snow,170,2013-12-25 06:55:00
1:15 AM,10.8,5.9,81,30.20,7.0,SSE,8.1,-,N/A,Snow,Light Snow,160,2013-12-25 07:15:00
1:35 AM,10.9,5.9,80,30.20,4.0,South,8.1,-,N/A,Snow,Light Snow,170,2013-12-25 07:35:00
1:55 AM,10.9,5.9,80,30.19,3.0,South,8.1,-,N/A,Snow,Light Snow,180,2013-12-25 07:55:00
2:15 AM,10.8,5.9,81,30.19,1.5,South,6.9,-,N/A,Snow,Light Snow,180,2013-12-25 08:15:00
2:35 AM,10.9,6.1,81,30.18,3.0,South,6.9,-,N/A,Snow,Light Snow,180,2013-12-25 08:35:00
2:55 AM,10.9,6.1,81,30.17,2.0,South,6.9,-,N/A,Snow,Light Snow,190,2013-12-25 08:55:00
3:15 AM,11.1,6.3,81,30.17,3.0,South,5.8,-,N/A,Snow,Light Snow,190,2013-12-25 09:15:00
3:35 AM,11.1,6.1,80,30.16,4.0,SSW,6.9,-,N/A,Snow,Light Snow,200,2013-12-25 09:35:00
3:55 AM,11.3,6.1,80,30.16,5.0,SSW,5.8,-,N/A,Snow,Light Snow,210,2013-12-25 09:55:00
4:15 AM,11.7,6.8,81,30.15,7.0,SSW,5.8,-,N/A,Snow,Light Snow,200,2013-12-25 10:15:00
4:35 AM,11.7,6.6,80,30.14,5.0,SSW,5.8,-,N/A,Snow,Light Snow,210,2013-12-25 10:35:00
4:55 AM,11.8,6.8,80,30.14,4.0,SSW,5.8,-,N/A,Snow,Light Snow,210,2013-12-25 10:55:00
5:15 AM,12.0,6.8,80,30.13,5.0,SSW,6.9,-,N/A,Snow,Light Snow,210,2013-12-25 11:15:00
5:35 AM,12.0,7.2,81,30.13,10.0,SSW,5.8,-,N/A,Snow,Light Snow,210,2013-12-25 11:35:00
5:55 AM,12.2,7.3,81,30.13,10.0,SSW,6.9,-,N/A,Snow,Light Snow,210,2013-12-25 11:55:00
6:15 AM,12.2,7.3,81,30.12,10.0,SSW,6.9,-,N/A,,Overcast,210,2013-12-25 12:15:00
6:35 AM,12.2,7.5,82,30.12,10.0,SSW,6.9,-,N/A,,Overcast,210,2013-12-25 12:35:00
6:55 AM,12.6,7.5,80,30.12,10.0,SW,5.8,-,N/A,,Overcast,220,2013-12-25 12:55:00
7:15 AM,12.9,7.7,80,30.12,10.0,SW,5.8,-,N/A,Snow,Light Snow,220,2013-12-25 13:15:00
7:35 AM,12.9,7.7,80,30.12,10.0,SSW,5.8,-,N/A,Snow,Light Snow,210,2013-12-25 13:35:00
7:55 AM,13.1,7.9,80,30.13,7.0,SSW,4.6,-,N/A,Snow,Light Snow,210,2013-12-25 13:55:00
8:15 AM,13.1,8.2,81,30.13,7.0,SSW,5.8,-,N/A,Snow,Light Snow,210,2013-12-25 14:15:00
8:35 AM,13.6,8.4,80,30.13,4.0,SW,5.8,-,N/A,Snow,Light Snow,220,2013-12-25 14:35:00
8:55 AM,14.0,8.6,79,30.14,2.0,SW,5.8,-,N/A,Snow,Light Snow,220,2013-12-25 14:55:00
9:15 AM,14.7,9.3,79,30.13,2.5,SSW,5.8,-,N/A,Snow,Light Snow,210,2013-12-25 15:15:00
9:35 AM,15.3,9.5,78,30.14,3.0,SW,5.8,-,N/A,Snow,Light Snow,220,2013-12-25 15:35:00
9:55 AM,16.3,10.0,76,30.14,4.0,SW,3.5,-,N/A,Snow,Light Snow,230,2013-12-25 15:55:00
10:15 AM,16.7,10.4,76,30.14,4.0,SW,6.9,-,N/A,Snow,Light Snow,230,2013-12-25 16:15:00
10:35 AM,17.1,10.4,75,30.13,4.0,SW,5.8,-,N/A,Snow,Light Snow,230,2013-12-25 16:35:00
10:55 AM,17.2,10.9,76,30.12,5.0,WSW,8.1,-,N/A,Snow,Light Snow,240,2013-12-25 16:55:00
11:15 AM,17.4,10.9,76,30.12,5.0,WSW,6.9,-,N/A,,Haze,240,2013-12-25 17:15:00
11:35 AM,17.8,11.3,76,30.11,3.0,WSW,6.9,-,N/A,Snow,Light Snow,240,2013-12-25 17:35:00
11:55 AM,18.3,11.3,74,30.10,5.0,WSW,6.9,-,N/A,Snow,Light Snow,240,2013-12-25 17:55:00
12:15 PM,18.9,11.8,74,30.09,5.0,West,6.9,-,N/A,Snow,Light Snow,260,2013-12-25 18:15:00
12:35 PM,19.4,12.0,73,30.08,5.0,SW,5.8,-,N/A,,Haze,230,2013-12-25 18:35:00
12:55 PM,19.4,12.2,74,30.07,7.0,SW,6.9,-,N/A,,Overcast,230,2013-12-25 18:55:00
1:15 PM,20.3,12.7,73,30.07,7.0,SW,4.6,-,N/A,,Overcast,220,2013-12-25 19:15:00
1:35 PM,20.3,13.1,74,30.06,7.0,SW,4.6,-,N/A,,Overcast,220,2013-12-25 19:35:00
1:55 PM,20.5,13.5,74,30.06,7.0,WSW,4.6,-,N/A,Snow,Light Snow,240,2013-12-25 19:55:00
2:15 PM,20.7,13.5,74,30.06,7.0,SW,6.9,-,N/A,Snow,Light Snow,230,2013-12-25 20:15:00
2:35 PM,21.0,14.0,74,30.06,4.0,SW,5.8,-,N/A,Snow,Light Snow,230,2013-12-25 20:35:00
2:55 PM,21.0,14.0,74,30.06,7.0,WSW,5.8,-,N/A,Snow,Light Snow,240,2013-12-25 20:55:00
3:15 PM,21.0,14.0,74,30.06,5.0,SW,6.9,-,N/A,Snow,Light Snow,230,2013-12-25 21:15:00
3:35 PM,21.2,14.4,75,30.06,7.0,SW,6.9,-,N/A,Snow,Light Snow,220,2013-12-25 21:35:00
3:55 PM,21.0,14.7,77,30.06,5.0,SSW,4.6,-,N/A,Snow,Light Snow,200,2013-12-25 21:55:00
4:15 PM,21.0,14.9,77,30.05,5.0,SSW,5.8,-,N/A,Snow,Light Snow,210,2013-12-25 22:15:00
4:35 PM,20.8,14.9,78,30.05,7.0,SSW,4.6,-,N/A,Snow,Light Snow,210,2013-12-25 22:35:00
4:55 PM,20.8,15.3,79,30.05,5.0,SSW,4.6,-,N/A,Snow,Light Snow,210,2013-12-25 22:55:00
5:15 PM,20.8,15.4,80,30.05,5.0,SSW,3.5,-,N/A,Snow,Light Snow,200,2013-12-25 23:15:00
5:35 PM,20.7,15.6,81,30.05,4.0,SSW,3.5,-,N/A,Snow,Light Snow,200,2013-12-25 23:35:00
5:55 PM,20.3,15.8,83,30.05,4.0,Calm,Calm,-,N/A,Snow,Light Snow,0,2013-12-25 23:55:00
6:15 PM,20.3,15.8,83,30.05,5.0,Calm,Calm,-,N/A,Snow,Light Snow,0,2013-12-26 00:15:00
6:35 PM,20.3,16.2,84,30.04,3.0,Calm,Calm,-,N/A,Snow,Light Snow,0,2013-12-26 00:35:00
6:55 PM,20.3,16.3,85,30.04,4.0,Calm,Calm,-,N/A,Snow,Light Snow,0,2013-12-26 00:55:00
7:15 PM,20.3,16.5,85,30.04,5.0,Calm,Calm,-,N/A,Snow,Light Snow,0,2013-12-26 01:15:00
7:35 PM,20.3,16.5,85,30.03,7.0,Calm,Calm,-,N/A,,Overcast,0,2013-12-26 01:35:00
7:55 PM,20.3,16.5,85,30.03,5.0,Calm,Calm,-,N/A,,Overcast,0,2013-12-26 01:55:00
8:15 PM,20.3,16.7,86,30.02,5.0,Calm,Calm,-,N/A,,Overcast,0,2013-12-26 02:15:00
8:35 PM,19.8,16.0,85,30.02,5.0,Calm,Calm,-,N/A,,Overcast,0,2013-12-26 02:35:00
8:55 PM,19.9,16.5,87,30.02,5.0,Calm,Calm,-,N/A,,Overcast,0,2013-12-26 02:55:00
9:15 PM,20.1,16.7,87,30.02,4.0,WSW,3.5,-,N/A,Snow,Light Snow,250,2013-12-26 03:15:00
9:35 PM,21.0,17.4,86,30.02,5.0,West,4.6,-,N/A,Snow,Light Snow,280,2013-12-26 03:35:00
9:55 PM,22.1,17.8,83,30.02,5.0,WNW,11.5,17.3,N/A,Snow,Light Snow,300,2013-12-26 03:55:00
10:15 PM,22.1,16.7,80,30.03,5.0,WNW,8.1,-,N/A,Snow,Light Snow,290,2013-12-26 04:15:00
10:35 PM,21.6,15.1,76,30.03,5.0,WNW,9.2,17.3,N/A,Snow,Light Snow,290,2013-12-26 04:35:00
10:55 PM,20.7,13.8,75,30.04,7.0,WNW,11.5,18.4,N/A,Snow,Light Snow,300,2013-12-26 04:55:00
11:15 PM,20.3,12.9,73,30.04,10.0,WNW,8.1,-,N/A,,Mostly Cloudy,300,2013-12-26 05:15:00
11:35 PM,20.1,12.4,72,30.04,10.0,West,5.8,-,N/A,,Scattered Clouds,280,2013-12-26 05:35:00
11:55 PM,19.4,11.3,71,30.04,10.0,WNW,5.8,-,N/A,,Mostly Cloudy,290,2013-12-26 05:55:00